Time;durP1;ratioP1;P1;durP2;ratioP2;P2;SDS_P1;SDS_P2;PMS_P1;PMS_P2;Temp;Humidity;BMP_temperature;BMP_pressure;BME280_temperature;BME280_humidity;BME280_pressure;Samples;Min_cycle;Max_cycle;Signal;HPM_P1;HPM_P2
2023/05/05 00:00:52;;;;;;;4.60;4.50;;;;;;;;;;4948699;29;20429;-74
2023/05/05 00:03:20;;;;;;;4.40;4.33;;;;;;;;;;4945345;29;20825;-74
2023/05/05 00:05:46;;;;;;;5.17;4.77;;;;;;;;;;4930793;29;20449;-73
2023/05/05 00:08:12;;;;;;;4.80;4.47;;;;;;;;;;4949248;29;20510;-74
2023/05/05 00:10:38;;;;;;;5.90;5.17;;;;;;;;;;4949598;29;20465;-75
2023/05/05 00:13:05;;;;;;;4.83;4.73;;;;;;;;;;4949396;29;20800;-73
2023/05/05 00:15:31;;;;;;;3.67;3.67;;;;;;;;;;4947199;29;20490;-73
2023/05/05 00:17:57;;;;;;;4.67;4.57;;;;;;;;;;4949049;28;20790;-74
2023/05/05 00:20:23;;;;;;;4.63;4.33;;;;;;;;;;4945589;29;20445;-73
2023/05/05 00:22:49;;;;;;;4.33;4.20;;;;;;;;;;4941831;29;20441;-74
2023/05/05 00:25:15;;;;;;;4.10;4.00;;;;;;;;;;4943765;29;20496;-74
2023/05/05 00:27:41;;;;;;;4.50;4.30;;;;;;;;;;4948458;29;20521;-74
2023/05/05 00:30:07;;;;;;;4.50;4.30;;;;;;;;;;4946010;28;20548;-73
2023/05/05 00:32:33;;;;;;;5.00;4.80;;;;;;;;;;4949085;29;20437;-74
2023/05/05 00:34:59;;;;;;;4.70;4.43;;;;;;;;;;4947474;29;20430;-74
2023/05/05 00:37:25;;;;;;;4.80;4.60;;;;;;;;;;4949256;29;20462;-73
2023/05/05 00:39:52;;;;;;;4.93;4.73;;;;;;;;;;4945258;29;20534;-73
2023/05/05 00:42:18;;;;;;;4.93;4.57;;;;;;;;;;4942970;29;20442;-74
2023/05/05 00:44:44;;;;;;;5.20;4.93;;;;;;;;;;4944708;29;20441;-74
2023/05/05 00:47:13;;;;;;;4.90;4.50;;;;;;;;;;4944740;29;20617;-75
2023/05/05 00:49:40;;;;;;;5.80;4.80;;;;;;;;;;4945235;29;20521;-74
2023/05/05 00:52:06;;;;;;;4.80;4.50;;;;;;;;;;4945377;29;20526;-75
2023/05/05 00:54:35;;;;;;;5.30;4.90;;;;;;;;;;4944592;29;21048;-74
2023/05/05 00:57:02;;;;;;;6.03;4.63;;;;;;;;;;4946941;29;21005;-74
2023/05/05 00:59:32;;;;;;;5.17;5.00;;;;;;;;;;4945160;29;20446;-74
2023/05/05 01:01:58;;;;;;;4.70;4.60;;;;;;;;;;4948965;29;20521;-74
2023/05/05 01:04:26;;;;;;;5.43;5.17;;;;;;;;;;4945559;29;20505;-74
2023/05/05 01:06:59;;;;;;;5.77;5.47;;;;;;;;;;4948331;29;20430;-74
2023/05/05 01:09:28;;;;;;;4.87;4.67;;;;;;;;;;4936422;29;20600;-73
2023/05/05 01:12:05;;;;;;;5.40;5.20;;;;;;;;;;4948338;29;20897;-74
2023/05/05 01:14:39;;;;;;;5.20;5.00;;;;;;;;;;4945451;29;20968;-74
2023/05/05 01:17:13;;;;;;;6.17;5.60;;;;;;;;;;4948310;29;20462;-75
2023/05/05 01:19:39;;;;;;;5.40;5.10;;;;;;;;;;4946777;28;20469;-75
2023/05/05 01:22:07;;;;;;;5.40;4.90;;;;;;;;;;4945962;29;20429;-75
2023/05/05 01:24:33;;;;;;;5.63;5.33;;;;;;;;;;4945410;29;20434;-74
2023/05/05 01:27:03;;;;;;;6.47;5.97;;;;;;;;;;4948393;29;20436;-74
2023/05/05 01:29:48;;;;;;;5.33;5.13;;;;;;;;;;4948088;28;20844;-74
2023/05/05 01:32:15;;;;;;;4.80;4.70;;;;;;;;;;4955023;28;20429;-75
2023/05/05 01:35:01;;;;;;;5.03;4.83;;;;;;;;;;4940495;28;20477;-74
2023/05/05 01:37:35;;;;;;;5.00;4.70;;;;;;;;;;4935756;29;20422;-74
2023/05/05 01:40:04;;;;;;;5.80;5.40;;;;;;;;;;4940814;29;20544;-74
2023/05/05 01:42:30;;;;;;;5.97;5.67;;;;;;;;;;4954213;28;20425;-74
2023/05/05 01:44:56;;;;;;;5.40;5.20;;;;;;;;;;4951405;28;20484;-74
2023/05/05 01:47:23;;;;;;;4.90;4.53;;;;;;;;;;4954346;29;20824;-73
2023/05/05 01:49:50;;;;;;;5.23;4.93;;;;;;;;;;4951843;29;20450;-74
2023/05/05 01:52:16;;;;;;;5.33;5.23;;;;;;;;;;4954186;29;20446;-74
2023/05/05 01:54:44;;;;;;;5.90;5.60;;;;;;;;;;4941383;29;20529;-75
2023/05/05 01:57:10;;;;;;;6.47;6.17;;;;;;;;;;4954362;29;20450;-75
2023/05/05 01:59:38;;;;;;;6.07;5.77;;;;;;;;;;4951527;29;20445;-74
2023/05/05 02:02:05;;;;;;;7.17;6.20;;;;;;;;;;4951051;29;20433;-75
2023/05/05 02:04:32;;;;;;;5.33;5.13;;;;;;;;;;4950264;28;20548;-73
2023/05/05 02:06:59;;;;;;;6.20;5.80;;;;;;;;;;4954144;28;20434;-74
2023/05/05 02:09:26;;;;;;;5.43;5.23;;;;;;;;;;4950783;29;20492;-74
2023/05/05 02:11:52;;;;;;;6.47;6.17;;;;;;;;;;4953272;28;20545;-74
2023/05/05 02:14:19;;;;;;;6.73;6.00;;;;;;;;;;4950771;29;20446;-74
2023/05/05 02:16:46;;;;;;;5.90;5.60;;;;;;;;;;4951352;29;20423;-74
2023/05/05 02:19:13;;;;;;;6.27;5.87;;;;;;;;;;4948468;28;20541;-75
2023/05/05 02:21:40;;;;;;;6.80;6.20;;;;;;;;;;4943318;28;21566;-74
2023/05/05 02:24:06;;;;;;;7.00;5.50;;;;;;;;;;4947854;28;20478;-74
2023/05/05 02:26:34;;;;;;;5.50;5.33;;;;;;;;;;4940615;29;20423;-74
2023/05/05 02:29:06;;;;;;;6.53;6.10;;;;;;;;;;4950221;29;21007;-74
2023/05/05 02:31:33;;;;;;;5.77;5.57;;;;;;;;;;4954074;29;20491;-73
2023/05/05 02:34:00;;;;;;;6.70;6.10;;;;;;;;;;4950265;28;20573;-73
2023/05/05 02:36:27;;;;;;;5.93;5.77;;;;;;;;;;4947595;28;20422;-73
2023/05/05 02:38:58;;;;;;;8.13;7.43;;;;;;;;;;4951295;28;20427;-74
2023/05/05 02:41:26;;;;;;;6.03;5.60;;;;;;;;;;4948114;28;20495;-74
2023/05/05 02:43:53;;;;;;;6.90;6.50;;;;;;;;;;4947445;29;20946;-74
2023/05/05 02:46:20;;;;;;;6.27;5.97;;;;;;;;;;4951453;29;21014;-74
2023/05/05 02:48:46;;;;;;;7.80;7.10;;;;;;;;;;4947532;29;20485;-73
2023/05/05 02:51:12;;;;;;;7.27;6.50;;;;;;;;;;4940608;29;20502;-76
2023/05/05 02:53:38;;;;;;;7.50;7.00;;;;;;;;;;4948700;29;21077;-75
2023/05/05 02:56:07;;;;;;;6.97;6.33;;;;;;;;;;4941069;29;20511;-74
2023/05/05 02:58:40;;;;;;;6.77;6.20;;;;;;;;;;4948716;29;20980;-74
2023/05/05 03:01:06;;;;;;;7.23;6.70;;;;;;;;;;4949476;29;20434;-74
2023/05/05 03:03:32;;;;;;;7.83;7.23;;;;;;;;;;4948161;29;20956;-74
2023/05/05 03:06:15;;;;;;;6.60;6.30;;;;;;;;;;4951103;29;20471;-75
2023/05/05 03:08:43;;;;;;;9.40;7.70;;;;;;;;;;4947720;29;20836;-75
2023/05/05 03:11:21;;;;;;;8.17;7.63;;;;;;;;;;4950481;29;20418;-75
2023/05/05 03:13:50;;;;;;;8.13;7.57;;;;;;;;;;4947277;29;20482;-76
2023/05/05 03:16:17;;;;;;;8.10;7.40;;;;;;;;;;4940856;29;20416;-73
2023/05/05 03:18:45;;;;;;;7.70;7.30;;;;;;;;;;4946994;29;20446;-75
2023/05/05 03:21:11;;;;;;;8.97;7.80;;;;;;;;;;4950130;29;20434;-74
2023/05/05 03:23:37;;;;;;;6.93;6.33;;;;;;;;;;4940209;29;20481;-74
2023/05/05 03:26:03;;;;;;;7.70;7.30;;;;;;;;;;4944329;29;20947;-74
2023/05/05 03:28:29;;;;;;;8.33;7.63;;;;;;;;;;4943475;29;20636;-74
2023/05/05 03:30:55;;;;;;;7.57;7.07;;;;;;;;;;4950401;29;20414;-75
2023/05/05 03:33:21;;;;;;;9.70;8.80;;;;;;;;;;4948457;29;20493;-75
2023/05/05 03:35:47;;;;;;;8.00;7.60;;;;;;;;;;4950412;29;20423;-74
2023/05/05 03:38:14;;;;;;;8.23;7.60;;;;;;;;;;4941253;29;20817;-75
2023/05/05 03:40:40;;;;;;;8.20;7.60;;;;;;;;;;4949880;29;20469;-74
2023/05/05 03:43:06;;;;;;;7.63;7.13;;;;;;;;;;4944195;29;20434;-74
2023/05/05 03:45:32;;;;;;;7.37;6.97;;;;;;;;;;4946660;29;21120;-74
2023/05/05 03:47:58;;;;;;;8.97;8.10;;;;;;;;;;4945982;29;20514;-74
2023/05/05 03:50:25;;;;;;;8.20;7.50;;;;;;;;;;4946623;29;20445;-75
2023/05/05 03:52:51;;;;;;;8.80;8.00;;;;;;;;;;4949247;28;20446;-75
2023/05/05 03:55:16;;;;;;;8.77;8.07;;;;;;;;;;4934154;29;20442;-75
2023/05/05 03:57:44;;;;;;;8.60;7.83;;;;;;;;;;4949773;29;20429;-74
2023/05/05 04:00:11;;;;;;;8.50;7.90;;;;;;;;;;4943500;29;20450;-74
2023/05/05 04:02:37;;;;;;;9.30;8.47;;;;;;;;;;4949546;29;20418;-75
2023/05/05 04:05:03;;;;;;;9.63;8.83;;;;;;;;;;4947657;29;20450;-75
2023/05/05 04:07:29;;;;;;;8.73;7.87;;;;;;;;;;4949211;29;20461;-75
2023/05/05 04:09:55;;;;;;;11.57;10.57;;;;;;;;;;4946911;29;20465;-75
2023/05/05 04:12:21;;;;;;;8.47;7.87;;;;;;;;;;4948053;29;20814;-75
2023/05/05 04:14:47;;;;;;;12.30;8.73;;;;;;;;;;4945580;29;20461;-74
2023/05/05 04:17:13;;;;;;;10.13;7.93;;;;;;;;;;4948809;29;20450;-74
2023/05/05 04:19:39;;;;;;;9.80;8.90;;;;;;;;;;4946520;29;20477;-74
2023/05/05 04:22:05;;;;;;;9.57;8.63;;;;;;;;;;4943875;29;20434;-74
2023/05/05 04:24:31;;;;;;;9.07;8.27;;;;;;;;;;4944649;29;20450;-75
2023/05/05 04:26:57;;;;;;;18.53;8.97;;;;;;;;;;4947191;29;20442;-75
2023/05/05 04:29:24;;;;;;;8.13;7.63;;;;;;;;;;4938845;28;20467;-74
2023/05/05 04:31:49;;;;;;;9.67;8.87;;;;;;;;;;4941682;29;20477;-75
2023/05/05 04:34:18;;;;;;;10.30;9.33;;;;;;;;;;4949119;29;20718;-74
2023/05/05 04:36:44;;;;;;;9.47;8.73;;;;;;;;;;4936397;28;20526;-74
2023/05/05 04:39:12;;;;;;;11.23;9.17;;;;;;;;;;4948031;28;20475;-73
2023/05/05 04:41:38;;;;;;;9.93;9.13;;;;;;;;;;4944907;29;21193;-74
2023/05/05 04:44:05;;;;;;;9.83;8.93;;;;;;;;;;4943707;29;20423;-73
2023/05/05 04:46:33;;;;;;;9.10;8.50;;;;;;;;;;4944915;29;20533;-75
2023/05/05 04:48:59;;;;;;;11.03;10.03;;;;;;;;;;4947844;29;20646;-75
2023/05/05 04:51:26;;;;;;;11.00;9.13;;;;;;;;;;4945286;29;21199;-74
2023/05/05 04:53:52;;;;;;;9.53;8.73;;;;;;;;;;4941434;29;20423;-74
2023/05/05 04:56:18;;;;;;;10.47;9.70;;;;;;;;;;4935525;29;20454;-75
2023/05/05 04:58:44;;;;;;;9.63;8.93;;;;;;;;;;4947781;29;20946;-73
2023/05/05 05:01:10;;;;;;;9.70;8.80;;;;;;;;;;4944018;29;20492;-76
2023/05/05 05:03:36;;;;;;;11.53;10.33;;;;;;;;;;4947152;28;20438;-75
2023/05/05 05:06:03;;;;;;;9.63;8.73;;;;;;;;;;4945484;29;20503;-74
2023/05/05 05:08:29;;;;;;;10.03;9.23;;;;;;;;;;4938012;28;20478;-74
2023/05/05 05:10:54;;;;;;;73.50;19.53;;;;;;;;;;4947457;28;20925;-74
2023/05/05 05:13:21;;;;;;;13.83;10.50;;;;;;;;;;4942378;29;20453;-75
2023/05/05 05:15:47;;;;;;;11.03;9.87;;;;;;;;;;4945609;29;20445;-75
2023/05/05 05:18:13;;;;;;;10.30;9.53;;;;;;;;;;4942909;29;20446;-76
2023/05/05 05:20:39;;;;;;;13.53;12.13;;;;;;;;;;4946943;29;20437;-75
2023/05/05 05:23:05;;;;;;;11.23;10.33;;;;;;;;;;4940570;29;20446;-75
2023/05/05 05:25:31;;;;;;;12.43;9.47;;;;;;;;;;4946429;29;20837;-74
2023/05/05 05:27:57;;;;;;;19.93;11.20;;;;;;;;;;4942782;28;20541;-73
2023/05/05 05:30:23;;;;;;;13.23;11.93;;;;;;;;;;4938551;28;20477;-75
2023/05/05 05:32:50;;;;;;;15.00;13.07;;;;;;;;;;4945970;28;20637;-75
2023/05/05 05:35:16;;;;;;;15.03;13.27;;;;;;;;;;4940397;29;20441;-74
2023/05/05 05:37:42;;;;;;;13.47;11.20;;;;;;;;;;4945708;29;20426;-74
2023/05/05 05:40:08;;;;;;;11.80;10.90;;;;;;;;;;4943267;29;20498;-73
2023/05/05 05:42:38;;;;;;;13.00;11.90;;;;;;;;;;4947414;29;20433;-75
2023/05/05 05:45:05;;;;;;;13.17;11.87;;;;;;;;;;4911267;29;20462;-77
2023/05/05 05:47:32;;;;;;;13.60;11.47;;;;;;;;;;4946281;29;20473;-76
2023/05/05 05:49:59;;;;;;;14.20;12.90;;;;;;;;;;4942022;29;20462;-75
2023/05/05 05:52:25;;;;;;;15.83;14.17;;;;;;;;;;4946219;29;20435;-76
2023/05/05 05:54:51;;;;;;;15.07;13.47;;;;;;;;;;4943615;29;20430;-75
2023/05/05 05:57:17;;;;;;;14.53;13.30;;;;;;;;;;4946111;29;20426;-74
2023/05/05 05:59:44;;;;;;;16.37;14.90;;;;;;;;;;4945351;29;20817;-76
2023/05/05 06:02:10;;;;;;;15.30;13.70;;;;;;;;;;4947337;28;20521;-75
2023/05/05 06:04:36;;;;;;;14.57;13.43;;;;;;;;;;4945379;28;20430;-74
2023/05/05 06:07:02;;;;;;;15.33;13.93;;;;;;;;;;4947342;28;20452;-74
2023/05/05 06:09:28;;;;;;;17.13;15.73;;;;;;;;;;4943291;28;20458;-75
2023/05/05 06:11:54;;;;;;;17.30;15.67;;;;;;;;;;4935849;29;20431;-75
2023/05/05 06:14:20;;;;;;;17.30;15.70;;;;;;;;;;4935507;28;20449;-74
2023/05/05 06:16:46;;;;;;;15.63;14.33;;;;;;;;;;4949157;28;20190;-76
2023/05/05 06:19:12;;;;;;;16.37;15.00;;;;;;;;;;4941965;29;20504;-76
2023/05/05 06:21:38;;;;;;;16.93;15.43;;;;;;;;;;4947768;29;20757;-76
2023/05/05 06:24:04;;;;;;;17.47;15.03;;;;;;;;;;4944459;28;20953;-76
2023/05/05 06:26:30;;;;;;;18.13;16.52;;;;;;;;;;4948516;29;20414;-76
2023/05/05 06:28:56;;;;;;;16.67;14.77;;;;;;;;;;4946780;29;20305;-74
2023/05/05 06:31:22;;;;;;;18.30;16.80;;;;;;;;;;4945809;29;20434;-75
2023/05/05 06:33:48;;;;;;;16.60;15.10;;;;;;;;;;4941965;29;20446;-75
2023/05/05 06:36:15;;;;;;;18.23;16.30;;;;;;;;;;4946601;29;20819;-75
2023/05/05 06:38:41;;;;;;;15.10;13.90;;;;;;;;;;4945023;29;21033;-76
2023/05/05 06:41:07;;;;;;;16.10;14.60;;;;;;;;;;4939658;28;20474;-74
2023/05/05 06:43:33;;;;;;;15.07;13.60;;;;;;;;;;4944895;28;20433;-74
2023/05/05 06:45:59;;;;;;;16.07;14.70;;;;;;;;;;4944242;29;20434;-75
2023/05/05 06:48:25;;;;;;;16.33;14.70;;;;;;;;;;4944712;29;20992;-75
2023/05/05 06:50:51;;;;;;;15.30;13.87;;;;;;;;;;4952563;29;20490;-74
2023/05/05 06:53:17;;;;;;;12.30;11.43;;;;;;;;;;4955960;29;20961;-76
2023/05/05 06:55:45;;;;;;;13.47;12.57;;;;;;;;;;4945924;29;20440;-76
2023/05/05 06:58:11;;;;;;;12.63;11.53;;;;;;;;;;4948666;29;20508;-75
2023/05/05 07:00:38;;;;;;;12.57;11.47;;;;;;;;;;4944833;29;20466;-74
2023/05/05 07:03:04;;;;;;;12.60;11.60;;;;;;;;;;4946745;28;20454;-75
2023/05/05 07:05:30;;;;;;;13.27;12.07;;;;;;;;;;4953808;28;20816;-75
2023/05/05 07:07:56;;;;;;;15.43;13.27;;;;;;;;;;4947748;28;20501;-75
2023/05/05 07:10:23;;;;;;;14.93;12.23;;;;;;;;;;4951997;28;20418;-75
2023/05/05 07:12:50;;;;;;;15.93;14.60;;;;;;;;;;4942711;29;20538;-73
2023/05/05 07:15:16;;;;;;;14.07;12.70;;;;;;;;;;4949257;29;20770;-74
2023/05/05 07:17:42;;;;;;;14.10;12.90;;;;;;;;;;4945983;29;21000;-72
2023/05/05 07:20:09;;;;;;;14.73;11.97;;;;;;;;;;4940310;29;20748;-74
2023/05/05 07:22:35;;;;;;;17.40;15.93;;;;;;;;;;4942854;29;20476;-74
2023/05/05 07:25:01;;;;;;;13.73;12.43;;;;;;;;;;4947617;29;20402;-75
2023/05/05 07:27:27;;;;;;;12.97;11.97;;;;;;;;;;4943797;28;20186;-74
2023/05/05 07:29:53;;;;;;;12.83;11.53;;;;;;;;;;4948222;28;20510;-76
2023/05/05 07:32:19;;;;;;;13.63;12.40;;;;;;;;;;4934915;28;20476;-74
2023/05/05 07:34:45;;;;;;;12.77;11.70;;;;;;;;;;4948745;29;20462;-74
2023/05/05 07:37:12;;;;;;;13.57;12.00;;;;;;;;;;4938637;29;20640;-74
2023/05/05 07:39:38;;;;;;;17.73;13.30;;;;;;;;;;4936008;29;20816;-74
2023/05/05 07:42:05;;;;;;;14.47;13.00;;;;;;;;;;4939874;29;20531;-76
2023/05/05 07:44:31;;;;;;;15.07;13.40;;;;;;;;;;4946875;29;20793;-75
2023/05/05 07:47:01;;;;;;;17.23;13.00;;;;;;;;;;4944395;29;20422;-75
2023/05/05 07:49:27;;;;;;;13.50;12.40;;;;;;;;;;4948705;29;20524;-75
2023/05/05 07:51:54;;;;;;;12.53;11.43;;;;;;;;;;4944283;29;20537;-74
2023/05/05 07:54:20;;;;;;;13.00;12.00;;;;;;;;;;4947613;29;20426;-75
2023/05/05 07:56:46;;;;;;;11.00;9.57;;;;;;;;;;4945025;29;20540;-73
2023/05/05 07:59:12;;;;;;;6.10;5.80;;;;;;;;;;4945833;29;20863;-74
2023/05/05 08:01:39;;;;;;;6.77;6.47;;;;;;;;;;4945202;29;20653;-75
2023/05/05 08:04:05;;;;;;;9.00;8.37;;;;;;;;;;4948348;29;21013;-74
2023/05/05 08:06:32;;;;;;;11.80;10.80;;;;;;;;;;4945176;29;20491;-73
2023/05/05 08:09:00;;;;;;;9.50;8.60;;;;;;;;;;4946999;29;20533;-74
2023/05/05 08:11:26;;;;;;;9.93;9.03;;;;;;;;;;4943240;29;20438;-74
2023/05/05 08:13:52;;;;;;;10.63;9.93;;;;;;;;;;4946612;29;20471;-75
2023/05/05 08:16:18;;;;;;;10.33;9.30;;;;;;;;;;4945974;29;20438;-75
2023/05/05 08:18:45;;;;;;;10.60;9.50;;;;;;;;;;4942749;28;20438;-74
2023/05/05 08:21:11;;;;;;;8.50;8.00;;;;;;;;;;4946401;29;20846;-76
2023/05/05 08:23:37;;;;;;;8.33;7.63;;;;;;;;;;4942212;28;20456;-75
2023/05/05 08:26:05;;;;;;;8.80;8.20;;;;;;;;;;4947280;29;20797;-75
2023/05/05 08:28:31;;;;;;;10.43;9.37;;;;;;;;;;4943853;28;20489;-75
2023/05/05 08:30:57;;;;;;;10.17;9.33;;;;;;;;;;4929639;29;20889;-75
2023/05/05 08:33:24;;;;;;;11.77;10.77;;;;;;;;;;4944073;29;20436;-74
2023/05/05 08:35:50;;;;;;;10.30;9.40;;;;;;;;;;4947299;29;20449;-75
2023/05/05 08:38:17;;;;;;;7.93;7.43;;;;;;;;;;4943090;28;20445;-76
2023/05/05 08:40:44;;;;;;;7.97;7.53;;;;;;;;;;4946435;29;20466;-75
2023/05/05 08:43:10;;;;;;;9.10;8.03;;;;;;;;;;4943212;29;20445;-75
2023/05/05 08:45:36;;;;;;;8.03;7.53;;;;;;;;;;4947464;28;20434;-75
2023/05/05 08:48:04;;;;;;;8.13;7.53;;;;;;;;;;4943364;28;20536;-77
2023/05/05 08:50:30;;;;;;;7.77;7.27;;;;;;;;;;4929934;29;20790;-75
2023/05/05 08:53:02;;;;;;;6.80;6.20;;;;;;;;;;4947259;29;20442;-75
2023/05/05 08:55:33;;;;;;;6.20;5.90;;;;;;;;;;4941305;28;20464;-75
2023/05/05 08:58:01;;;;;;;4.20;4.00;;;;;;;;;;4944244;28;20465;-75
2023/05/05 09:00:28;;;;;;;5.23;5.00;;;;;;;;;;4947281;28;20457;-76
2023/05/05 09:02:56;;;;;;;5.10;4.70;;;;;;;;;;4947249;28;20437;-74
2023/05/05 09:05:22;;;;;;;4.93;4.67;;;;;;;;;;4943069;29;21035;-76
2023/05/05 09:07:48;;;;;;;5.93;5.53;;;;;;;;;;4947382;28;20426;-75
2023/05/05 09:10:14;;;;;;;6.10;5.87;;;;;;;;;;4943440;28;20513;-76
2023/05/05 09:12:40;;;;;;;5.53;5.37;;;;;;;;;;4946386;29;20941;-74
2023/05/05 09:15:10;;;;;;;4.90;4.70;;;;;;;;;;4942391;28;20450;-76
2023/05/05 09:17:37;;;;;;;5.87;5.67;;;;;;;;;;4946805;29;20436;-76
2023/05/05 09:20:06;;;;;;;6.63;6.20;;;;;;;;;;4939668;29;20976;-74
2023/05/05 09:22:33;;;;;;;4.47;4.27;;;;;;;;;;4946372;29;20918;-74
2023/05/05 09:24:59;;;;;;;5.07;4.87;;;;;;;;;;4941953;29;20552;-76
2023/05/05 09:27:25;;;;;;;4.10;4.00;;;;;;;;;;4946335;29;20432;-75
2023/05/05 09:29:51;;;;;;;6.23;3.87;;;;;;;;;;4944237;28;20854;-75
2023/05/05 09:32:17;;;;;;;4.63;4.43;;;;;;;;;;4945520;28;20472;-76
2023/05/05 09:34:55;;;;;;;5.50;5.00;;;;;;;;;;4944441;29;20865;-75
2023/05/05 09:37:29;;;;;;;4.23;4.10;;;;;;;;;;4944584;29;20448;-76
2023/05/05 09:39:56;;;;;;;4.57;4.47;;;;;;;;;;4943154;28;20460;-76
2023/05/05 09:42:22;;;;;;;4.73;4.60;;;;;;;;;;4936484;29;20520;-76
2023/05/05 09:44:48;;;;;;;5.30;5.10;;;;;;;;;;4944462;29;20453;-76
2023/05/05 09:47:14;;;;;;;4.60;4.50;;;;;;;;;;4939966;29;20442;-74
2023/05/05 09:49:40;;;;;;;4.93;4.63;;;;;;;;;;4944125;28;20482;-74
2023/05/05 09:52:14;;;;;;;4.33;4.23;;;;;;;;;;4933264;29;21274;-75
2023/05/05 09:54:40;;;;;;;4.70;4.60;;;;;;;;;;4946628;29;20910;-76
2023/05/05 09:57:06;;;;;;;4.00;3.90;;;;;;;;;;4948552;29;20450;-75
2023/05/05 09:59:32;;;;;;;4.13;3.80;;;;;;;;;;4947846;28;20496;-77
2023/05/05 10:02:11;;;;;;;4.87;4.67;;;;;;;;;;4948337;29;20445;-78
2023/05/05 10:04:37;;;;;;;7.00;6.60;;;;;;;;;;4947907;29;20449;-77
2023/05/05 10:07:03;;;;;;;5.43;5.13;;;;;;;;;;4943899;28;20497;-75
2023/05/05 10:09:32;;;;;;;4.73;4.53;;;;;;;;;;4950176;29;20470;-75
2023/05/05 10:12:01;;;;;;;5.00;4.77;;;;;;;;;;4946127;28;20493;-75
2023/05/05 10:14:30;;;;;;;5.43;5.13;;;;;;;;;;4950087;28;20521;-75
2023/05/05 10:16:58;;;;;;;5.20;4.90;;;;;;;;;;4939832;29;20529;-75
2023/05/05 10:19:27;;;;;;;6.10;5.60;;;;;;;;;;4949592;29;20964;-76
2023/05/05 10:21:54;;;;;;;5.90;5.57;;;;;;;;;;4943398;29;20447;-74
2023/05/05 10:24:35;;;;;;;5.17;5.00;;;;;;;;;;4949951;28;20436;-75
2023/05/05 10:27:02;;;;;;;6.50;5.60;;;;;;;;;;4945669;29;20446;-74
2023/05/05 10:29:44;;;;;;;6.97;6.57;;;;;;;;;;4932204;29;20461;-75
2023/05/05 10:32:30;;;;;;;7.40;7.10;;;;;;;;;;4945927;29;20696;-74
2023/05/05 10:35:03;;;;;;;7.80;7.20;;;;;;;;;;4946471;29;20414;-73
2023/05/05 10:37:30;;;;;;;6.23;5.93;;;;;;;;;;4941154;28;20434;-74
2023/05/05 10:39:56;;;;;;;6.13;5.73;;;;;;;;;;4948926;28;20461;-75
2023/05/05 10:42:23;;;;;;;4.80;4.50;;;;;;;;;;4945886;29;20768;-76
2023/05/05 10:44:52;;;;;;;5.97;5.47;;;;;;;;;;4946607;28;20434;-75
2023/05/05 10:47:19;;;;;;;4.00;3.70;;;;;;;;;;4944597;29;20834;-75
2023/05/05 10:49:51;;;;;;;4.00;3.90;;;;;;;;;;4947803;28;20536;-77
2023/05/05 10:52:25;;;;;;;4.30;4.10;;;;;;;;;;4945808;29;20447;-74
2023/05/05 10:55:05;;;;;;;5.00;4.80;;;;;;;;;;4949646;28;20430;-74
2023/05/05 10:57:32;;;;;;;4.50;4.40;;;;;;;;;;4945774;29;20434;-75
2023/05/05 10:59:58;;;;;;;4.63;4.53;;;;;;;;;;4949184;29;20464;-74
2023/05/05 11:02:25;;;;;;;5.83;4.70;;;;;;;;;;4943490;28;20512;-75
2023/05/05 11:05:04;;;;;;;4.80;4.60;;;;;;;;;;4949319;28;20453;-74
2023/05/05 11:07:32;;;;;;;4.93;4.73;;;;;;;;;;4944122;28;20434;-76
2023/05/05 11:10:02;;;;;;;4.37;4.27;;;;;;;;;;4948648;29;20512;-74
2023/05/05 11:12:30;;;;;;;5.03;4.60;;;;;;;;;;4945144;29;20513;-76
2023/05/05 11:15:15;;;;;;;6.03;5.83;;;;;;;;;;4948074;28;20426;-75
2023/05/05 11:17:47;;;;;;;5.90;5.60;;;;;;;;;;4944517;29;20444;-75
2023/05/05 11:20:13;;;;;;;4.73;4.53;;;;;;;;;;4944103;28;20510;-74
2023/05/05 11:22:58;;;;;;;4.13;4.00;;;;;;;;;;4940322;29;20434;-75
2023/05/05 11:25:37;;;;;;;4.43;4.43;;;;;;;;;;4948515;28;20481;-76
2023/05/05 11:28:05;;;;;;;4.50;4.40;;;;;;;;;;4941483;28;20473;-75
2023/05/05 11:30:31;;;;;;;4.80;4.50;;;;;;;;;;4945393;28;20473;-75
2023/05/05 11:33:15;;;;;;;5.50;5.10;;;;;;;;;;4948701;29;20458;-75
2023/05/05 11:35:54;;;;;;;4.37;4.13;;;;;;;;;;4940197;28;20454;-76
2023/05/05 11:38:23;;;;;;;5.07;4.87;;;;;;;;;;4944323;29;20949;-74
2023/05/05 11:40:50;;;;;;;5.00;4.80;;;;;;;;;;4943845;29;20470;-74
2023/05/05 11:43:18;;;;;;;4.97;4.53;;;;;;;;;;4947898;29;20598;-75
2023/05/05 11:45:44;;;;;;;4.73;4.37;;;;;;;;;;4944738;29;20434;-75
2023/05/05 11:48:28;;;;;;;4.90;4.60;;;;;;;;;;4948432;28;20503;-75
2023/05/05 11:50:54;;;;;;;5.43;5.20;;;;;;;;;;4944341;29;20445;-74
2023/05/05 11:53:20;;;;;;;6.63;5.77;;;;;;;;;;4929695;29;20432;-74
2023/05/05 11:55:46;;;;;;;6.37;6.07;;;;;;;;;;4943299;29;20541;-75
2023/05/05 11:58:19;;;;;;;10.80;5.97;;;;;;;;;;4947028;29;20453;-75
2023/05/05 12:00:45;;;;;;;8.00;7.37;;;;;;;;;;4943414;29;20478;-77
2023/05/05 12:03:11;;;;;;;5.60;5.20;;;;;;;;;;4947656;29;21023;-77
2023/05/05 12:05:37;;;;;;;4.50;4.17;;;;;;;;;;4944695;29;20454;-77
2023/05/05 12:08:03;;;;;;;4.07;3.77;;;;;;;;;;4947127;28;20438;-77
2023/05/05 12:10:29;;;;;;;4.23;3.80;;;;;;;;;;4944143;29;20652;-76
2023/05/05 12:12:55;;;;;;;5.40;5.07;;;;;;;;;;4945267;28;20580;-76
2023/05/05 12:15:29;;;;;;;6.87;6.37;;;;;;;;;;4930719;29;20815;-76
2023/05/05 12:17:55;;;;;;;7.23;6.50;;;;;;;;;;4947221;29;20953;-76
2023/05/05 12:20:31;;;;;;;10.23;9.52;;;;;;;;;;4944719;29;20401;-77
2023/05/05 12:23:01;;;;;;;7.67;6.60;;;;;;;;;;4936712;28;20248;-77
2023/05/05 12:25:34;;;;;;;9.43;8.53;;;;;;;;;;4948762;28;20505;-78
2023/05/05 12:28:00;;;;;;;10.53;9.57;;;;;;;;;;4941452;28;20798;-77
2023/05/05 12:30:26;;;;;;;5.13;4.93;;;;;;;;;;4930281;29;20550;-74
2023/05/05 12:32:59;;;;;;;6.40;5.83;;;;;;;;;;4938694;28;20480;-76
2023/05/05 12:35:25;;;;;;;6.33;5.53;;;;;;;;;;4940697;28;20411;-76
2023/05/05 12:37:52;;;;;;;5.03;4.73;;;;;;;;;;4943771;29;20530;-75
2023/05/05 12:40:36;;;;;;;6.27;5.77;;;;;;;;;;4946094;29;20478;-74
2023/05/05 12:43:02;;;;;;;5.53;5.07;;;;;;;;;;4938211;29;20627;-76
2023/05/05 12:45:28;;;;;;;6.23;5.73;;;;;;;;;;4947309;29;20418;-76
2023/05/05 12:47:55;;;;;;;4.03;3.73;;;;;;;;;;4943969;29;20477;-76
2023/05/05 12:50:30;;;;;;;3.10;2.90;;;;;;;;;;4951560;29;20729;-76
2023/05/05 12:52:57;;;;;;;5.70;5.20;;;;;;;;;;4946891;29;21149;-75
2023/05/05 12:55:41;;;;;;;6.30;5.80;;;;;;;;;;4947204;29;20550;-75
2023/05/05 12:58:07;;;;;;;4.53;4.30;;;;;;;;;;4942466;28;20458;-76
2023/05/05 13:00:33;;;;;;;5.47;5.00;;;;;;;;;;4925985;29;20419;-77
2023/05/05 13:02:59;;;;;;;4.70;4.60;;;;;;;;;;4943003;29;20465;-76
2023/05/05 13:05:32;;;;;;;4.70;4.60;;;;;;;;;;4941340;28;20425;-76
2023/05/05 13:07:58;;;;;;;4.50;4.20;;;;;;;;;;4930898;29;20529;-76
2023/05/05 13:10:25;;;;;;;4.77;4.47;;;;;;;;;;4936743;29;20427;-76
2023/05/05 13:12:55;;;;;;;4.43;4.23;;;;;;;;;;4943061;28;20430;-76
2023/05/05 13:15:21;;;;;;;4.30;4.00;;;;;;;;;;4940824;29;20510;-76
2023/05/05 13:17:47;;;;;;;4.30;4.10;;;;;;;;;;4935699;28;20561;-77
2023/05/05 13:20:13;;;;;;;4.70;4.50;;;;;;;;;;4946380;28;20437;-76
2023/05/05 13:22:39;;;;;;;4.37;4.17;;;;;;;;;;4937737;29;20430;-76
2023/05/05 13:25:06;;;;;;;3.83;3.73;;;;;;;;;;4930441;28;20427;-77
2023/05/05 13:27:32;;;;;;;6.70;4.13;;;;;;;;;;4938606;29;21024;-76
2023/05/05 13:29:58;;;;;;;5.13;4.93;;;;;;;;;;4946600;28;20561;-77
2023/05/05 13:32:24;;;;;;;4.83;4.10;;;;;;;;;;4946997;29;20496;-76
2023/05/05 13:34:50;;;;;;;3.90;3.67;;;;;;;;;;4938384;29;20465;-75
2023/05/05 13:37:16;;;;;;;3.70;3.60;;;;;;;;;;4940287;29;20438;-77
2023/05/05 13:39:42;;;;;;;4.23;3.80;;;;;;;;;;4927728;29;20956;-76
2023/05/05 13:42:08;;;;;;;4.87;4.67;;;;;;;;;;4946038;28;20732;-76
2023/05/05 13:44:34;;;;;;;4.07;4.07;;;;;;;;;;4943285;28;20802;-74
2023/05/05 13:47:00;;;;;;;4.77;4.57;;;;;;;;;;4943860;29;20485;-76
2023/05/05 13:49:26;;;;;;;5.37;5.07;;;;;;;;;;4940420;29;20581;-76
2023/05/05 13:51:53;;;;;;;3.23;3.20;;;;;;;;;;4945382;29;20430;-75
2023/05/05 13:54:20;;;;;;;3.90;3.80;;;;;;;;;;4936675;29;20451;-76
2023/05/05 13:56:46;;;;;;;4.10;3.70;;;;;;;;;;4945420;28;20798;-76
2023/05/05 13:59:12;;;;;;;3.80;3.80;;;;;;;;;;4934238;29;20454;-76
2023/05/05 14:01:38;;;;;;;4.23;4.00;;;;;;;;;;4945055;29;20581;-77
2023/05/05 14:04:04;;;;;;;4.00;3.80;;;;;;;;;;4941953;28;20494;-76
2023/05/05 14:06:31;;;;;;;4.17;3.90;;;;;;;;;;4945547;28;20950;-76
2023/05/05 14:08:57;;;;;;;4.60;4.30;;;;;;;;;;4942063;28;20944;-76
2023/05/05 14:11:23;;;;;;;4.07;3.97;;;;;;;;;;4946426;29;20541;-76
2023/05/05 14:13:51;;;;;;;4.40;4.20;;;;;;;;;;4941046;28;20434;-76
2023/05/05 14:16:17;;;;;;;4.60;4.40;;;;;;;;;;4945302;29;20493;-77
2023/05/05 14:18:44;;;;;;;4.20;4.10;;;;;;;;;;4937340;28;20537;-76
2023/05/05 14:21:11;;;;;;;5.03;4.83;;;;;;;;;;4938840;29;20526;-76
2023/05/05 14:23:40;;;;;;;4.43;4.20;;;;;;;;;;4939140;28;20430;-76
2023/05/05 14:26:07;;;;;;;4.03;3.87;;;;;;;;;;4949530;28;20577;-76
2023/05/05 14:28:33;;;;;;;5.33;5.13;;;;;;;;;;4942453;28;20474;-76
2023/05/05 14:30:59;;;;;;;5.70;5.50;;;;;;;;;;4945792;29;20446;-75
2023/05/05 14:33:25;;;;;;;4.90;4.60;;;;;;;;;;4938474;29;20512;-73
2023/05/05 14:35:51;;;;;;;5.83;5.47;;;;;;;;;;4939767;28;20803;-76
2023/05/05 14:38:17;;;;;;;9.93;8.93;;;;;;;;;;4944518;28;20492;-81
2023/05/05 14:40:43;;;;;;;6.47;6.07;;;;;;;;;;4950254;29;20469;-77